Fremont, NE

9:52 AM CST on December 16, 2017 (GMT -0600)
Fremont Municipal

Weather History for KFET - January, 2014

Change the Weather History Date:

Sunday, January 26, 2014

  Actual Average Record
Temperature  
Mean Temperature 29 °F -  
Max Temperature 53 °F 32 °F 66 °F (2002)
Min Temperature 4 °F 12 °F -18 °F (1950)
Degree Days  
Heating Degree Days 36    
Moisture  
Dew Point 21 °F    
Average Humidity 56    
Maximum Humidity 76    
Minimum Humidity 30    
Precipitation  
Precipitation 0.00 in - - ()
Sea Level Pressure  
Sea Level Pressure 29.78 in    
Wind  
Wind Speed 20 mph (WNW)    
Max Wind Speed 39 mph    
Max Gust Speed 54 mph    
Visibility 10 miles    
Events      
Averages and records for this station are not official NWS values.
T = Trace of Precipitation, MM = Missing Value Source: NWS Daily Summary

Daily Weather History Graph

Daily Weather History Graph

Search for Another Location

Airport or City:

Trip Planner

Search our weather history database for the weather conditions in past years. The results will help you decide how hot, cold, wet, or windy it might be!

Date:

Astronomy

Jan. 26, 2014 Rise Set
Actual Time 7:43 AM CST 5:34 PM CST
Civil Twilight 7:13 AM CST 6:04 PM CST
Nautical Twilight 6:39 AM CST 6:37 PM CST
Astronomical Twilight 6:07 AM CST 7:10 PM CST
Moon 3:21 AM CST (1/26) 1:24 PM CST (1/26)
Length of Visible Light 10h 51m
Length of Day
9h 51m
Waning Crescent, 23% of the Moon is Illuminated
Jan 26
Waning Crescent
Jan 30
New
Feb 6
First Quarter
Feb 14
Full
Feb 22
Last Quarter

Hourly Weather History & Observations

Time (CST) Temp. Windchill Dew Point Humidity Pressure Visibility Wind Dir Wind Speed Gust Speed Precip Events Conditions
12:15 AM 47.5 °F - 32.4 °F 56% 29.52 in 10.0 mi WSW 13.8 mph - N/A   Clear
12:35 AM 48.2 °F - 32.0 °F 54% 29.51 in 10.0 mi WSW 16.1 mph 24.2 mph N/A   Clear
12:55 AM 50.0 °F - 32.0 °F 50% 29.51 in 10.0 mi West 21.9 mph 29.9 mph N/A   Clear
1:15 AM 49.6 °F - 31.5 °F 50% 29.52 in 10.0 mi West 20.7 mph 27.6 mph N/A   Clear
1:35 AM 49.5 °F - 31.6 °F 50% 29.52 in 10.0 mi West 21.9 mph 26.5 mph N/A   Clear
1:55 AM 49.6 °F - 30.9 °F 49% 29.52 in 10.0 mi West 23.0 mph 28.8 mph N/A   Scattered Clouds
2:15 AM 48.6 °F - 30.7 °F 50% 29.53 in 10.0 mi West 20.7 mph 27.6 mph N/A   Mostly Cloudy
2:35 AM 47.1 °F - 30.9 °F 53% 29.55 in 10.0 mi West 18.4 mph 24.2 mph N/A   Scattered Clouds
2:55 AM 46.9 °F - 31.1 °F 54% 29.57 in 10.0 mi West 17.3 mph - N/A   Clear
3:15 AM 42.3 °F 35.9 °F 30.2 °F 62% 29.58 in 10.0 mi WNW 11.5 mph - N/A   Clear
3:35 AM 37.8 °F 30.7 °F 29.1 °F 71% 29.59 in 10.0 mi West 10.4 mph - N/A   Clear
3:55 AM 35.4 °F 29.7 °F 28.6 °F 76% 29.59 in 10.0 mi West 6.9 mph - N/A   Scattered Clouds
4:15 AM 39.2 °F 29.8 °F 31.6 °F 74% 29.61 in 10.0 mi NW 18.4 mph 21.9 mph N/A   Scattered Clouds
4:35 AM 45.7 °F 38.6 °F 34.2 °F 64% 29.62 in 10.0 mi NW 17.3 mph 25.3 mph N/A   Mostly Cloudy
4:55 AM 45.1 °F 38.1 °F 33.8 °F 65% 29.62 in 10.0 mi NW 16.1 mph - N/A   Overcast
5:15 AM 43.5 °F 36.4 °F 33.1 °F 67% 29.62 in 10.0 mi WNW 15.0 mph - N/A   Mostly Cloudy
5:35 AM 44.1 °F 38.1 °F 32.9 °F 65% 29.62 in 10.0 mi WNW 11.5 mph - N/A   Overcast
5:55 AM 43.9 °F 36.2 °F 31.6 °F 62% 29.62 in 10.0 mi WNW 17.3 mph 23.0 mph N/A   Mostly Cloudy
6:15 AM 42.8 °F 35.1 °F 31.1 °F 63% 29.63 in 10.0 mi WNW 16.1 mph - N/A   Clear
6:35 AM 40.3 °F 32.6 °F 30.7 °F 69% 29.64 in 10.0 mi West 13.8 mph - N/A   Clear
6:55 AM 39.6 °F 32.5 °F 30.6 °F 70% 29.65 in 10.0 mi West 11.5 mph - N/A   Clear
7:15 AM 38.1 °F 31.7 °F 30.2 °F 73% 29.65 in 10.0 mi West 9.2 mph - N/A   Clear
7:35 AM 39.4 °F 31.4 °F 31.1 °F 72% 29.65 in 10.0 mi West 13.8 mph - N/A   Clear
7:55 AM 41.0 °F 32.8 °F 32.0 °F 70% 29.65 in 10.0 mi West 16.1 mph - N/A   Mostly Cloudy
8:15 AM 39.4 °F 31.8 °F 32.0 °F 75% 29.64 in 10.0 mi West 12.7 mph - N/A   Scattered Clouds
8:35 AM 39.6 °F 32.1 °F 32.0 °F 74% 29.63 in 10.0 mi West 12.7 mph - N/A   Scattered Clouds
8:55 AM 40.1 °F 32.7 °F 32.0 °F 73% 29.63 in 10.0 mi West 12.7 mph - N/A   Scattered Clouds
9:15 AM 42.6 °F 34.9 °F 32.0 °F 66% 29.62 in 10.0 mi West 16.1 mph 19.6 mph N/A   Clear
9:35 AM 44.1 °F 36.8 °F 31.8 °F 62% 29.62 in 10.0 mi West 16.1 mph 21.9 mph N/A   Clear
9:55 AM 45.5 °F 37.6 °F 31.1 °F 57% 29.63 in 10.0 mi West 20.7 mph 25.3 mph N/A   Clear
10:15 AM 45.9 °F 39.1 °F 30.7 °F 56% 29.63 in 10.0 mi West 16.1 mph 24.2 mph N/A   Clear
10:35 AM 46.9 °F - 31.1 °F 54% 29.63 in 10.0 mi West 21.9 mph 26.5 mph N/A   Clear
10:55 AM 47.5 °F - 30.7 °F 52% 29.62 in 10.0 mi West 20.7 mph 27.6 mph N/A   Clear
11:15 AM 48.4 °F - 29.8 °F 49% 29.62 in 10.0 mi West 23.0 mph 28.8 mph N/A   Clear
11:35 AM 48.0 °F - 29.8 °F 49% 29.61 in 10.0 mi West 18.4 mph 24.2 mph N/A   Clear
11:55 AM 49.3 °F - 30.6 °F 49% 29.60 in 10.0 mi West 19.6 mph 24.2 mph N/A   Clear
12:15 PM 49.6 °F - 30.2 °F 47% 29.60 in 10.0 mi West 24.2 mph 29.9 mph N/A   Clear
12:35 PM 50.0 °F - 30.0 °F 46% 29.60 in 10.0 mi West 21.9 mph 34.5 mph N/A   Clear
12:55 PM 51.4 °F - 29.1 °F 42% 29.60 in 10.0 mi WNW 28.8 mph 39.1 mph N/A   Scattered Clouds
1:15 PM 52.5 °F - 27.5 °F 38% 29.59 in 10.0 mi WNW 34.5 mph 43.7 mph N/A   Clear
1:35 PM 52.2 °F - 27.7 °F 39% 29.58 in 10.0 mi West 29.9 mph 35.7 mph N/A   Mostly Cloudy
1:55 PM 52.7 °F - 27.9 °F 38% 29.59 in 10.0 mi WNW 34.5 mph 43.7 mph N/A   Scattered Clouds
2:15 PM 53.1 °F - 26.6 °F 36% 29.60 in 10.0 mi WNW 36.8 mph 47.2 mph N/A   Scattered Clouds
2:35 PM 49.8 °F - 29.7 °F 46% 29.63 in 10.0 mi NNW 34.5 mph 54.1 mph N/A   Scattered Clouds
2:55 PM 42.4 °F 30.9 °F 27.9 °F 56% 29.68 in 10.0 mi NW 35.7 mph 48.3 mph N/A   Clear
3:15 PM 39.2 °F 27.0 °F 21.7 °F 50% 29.72 in 10.0 mi NW 32.2 mph 48.3 mph N/A   Scattered Clouds
3:35 PM 37.6 °F 23.7 °F 20.1 °F 49% 29.76 in 10.0 mi NW 39.1 mph 48.3 mph N/A   Clear
3:55 PM 36.0 °F 22.2 °F 19.4 °F 51% 29.78 in 10.0 mi NW 34.5 mph 47.2 mph N/A   Scattered Clouds
4:15 PM 33.8 °F 19.6 °F 18.0 °F 52% 29.81 in 10.0 mi NNW 32.2 mph 41.4 mph N/A   Scattered Clouds
4:35 PM 31.5 °F 16.2 °F 4.1 °F 31% 29.85 in 10.0 mi NW 33.4 mph 42.6 mph N/A   Scattered Clouds
4:55 PM 30.6 °F 14.8 °F 5.5 °F 35% 29.87 in 10.0 mi NW 34.5 mph 44.9 mph N/A   Clear
5:15 PM 29.7 °F 13.8 °F 1.8 °F 30% 29.91 in 10.0 mi NNW 33.4 mph 49.5 mph N/A   Clear
5:35 PM 26.4 °F 9.5 °F 3.0 °F 37% 29.94 in 10.0 mi NNW 32.2 mph 47.2 mph N/A   Clear
5:55 PM 24.1 °F 8.7 °F 9.9 °F 55% 29.97 in 10.0 mi NNW 23.0 mph 38.0 mph N/A   Clear
6:15 PM 22.1 °F 4.8 °F 6.8 °F 52% 30.01 in 10.0 mi NNW 27.6 mph 39.1 mph N/A   Clear
6:35 PM 20.5 °F 1.7 °F 6.8 °F 56% 30.05 in 10.0 mi NNW 31.1 mph 43.7 mph N/A   Clear
6:55 PM 18.5 °F 1.6 °F 5.2 °F 56% 30.08 in 10.0 mi NNW 21.9 mph 39.1 mph N/A   Clear
7:15 PM 17.8 °F 0.3 °F 3.4 °F 53% 30.11 in 10.0 mi NNW 23.0 mph 35.7 mph N/A   Scattered Clouds
7:35 PM 17.2 °F -2.4 °F 0.7 °F 48% 30.13 in 10.0 mi NW 29.9 mph 48.3 mph N/A   Clear
7:55 PM 15.8 °F -4.1 °F 1.8 °F 54% 30.14 in 10.0 mi NNW 28.8 mph 40.3 mph N/A   Clear
8:15 PM 14.7 °F -5.2 °F 0.5 °F 53% 30.17 in 10.0 mi NNW 27.6 mph 38.0 mph N/A   Clear
8:35 PM 13.1 °F -5.9 °F 0.5 °F 57% 30.19 in 10.0 mi NW 23.0 mph 34.5 mph N/A   Clear
8:55 PM 12.2 °F -7.5 °F 1.9 °F 64% 30.20 in 10.0 mi NNW 24.2 mph 31.1 mph N/A   Scattered Clouds
9:15 PM 11.8 °F -5.8 °F -1.7 °F 55% 30.21 in 10.0 mi NW 18.4 mph 27.6 mph N/A   Scattered Clouds
9:35 PM 11.3 °F -9.1 °F 1.2 °F 64% 30.23 in 10.0 mi NNW 25.3 mph 33.4 mph N/A   Scattered Clouds
9:55 PM 9.7 °F -10.0 °F 1.6 °F 70% 30.24 in 10.0 mi NNW 21.9 mph 28.8 mph N/A   Scattered Clouds
10:15 PM 8.6 °F -10.0 °F -1.7 °F 63% 30.26 in 10.0 mi NNW 18.4 mph 27.6 mph N/A   Clear
10:35 PM 7.7 °F -10.1 °F -4.0 °F 59% 30.27 in 10.0 mi NNW 16.1 mph 24.2 mph N/A   Clear
10:55 PM 6.6 °F -13.1 °F -6.7 °F 54% 30.28 in 10.0 mi NNW 19.6 mph 31.1 mph N/A   Clear
11:15 PM 5.9 °F -13.5 °F -7.8 °F 53% 30.29 in 10.0 mi NNW 18.4 mph 25.3 mph N/A   Clear
11:35 PM 5.5 °F -12.9 °F -7.6 °F 55% 30.31 in 10.0 mi NNW 16.1 mph 26.5 mph N/A   Clear
11:55 PM 4.8 °F -11.8 °F -7.1 °F 58% 30.32 in 10.0 mi NNW 12.7 mph 18.4 mph N/A   Clear